createdAt,value
2023-08-11T00:04:01.141Z,16.82
2023-08-11T00:09:22.909Z,16.65
2023-08-11T00:14:44.620Z,16.60
2023-08-11T00:20:07.467Z,16.69
2023-08-11T00:25:29.270Z,16.62
2023-08-11T00:30:50.971Z,16.53
2023-08-11T00:36:12.871Z,16.59
2023-08-11T00:41:34.643Z,16.59
2023-08-11T00:46:56.589Z,16.38
2023-08-11T00:52:18.960Z,16.18
2023-08-11T00:57:41.176Z,15.99
2023-08-11T01:03:03.031Z,15.90
2023-08-11T01:08:55.702Z,15.96
2023-08-11T01:14:36.304Z,15.96
2023-08-11T01:19:59.447Z,15.82
2023-08-11T01:25:21.929Z,15.80
2023-08-11T01:30:43.713Z,15.78
2023-08-11T01:36:05.740Z,15.74
2023-08-11T01:41:27.486Z,15.69
2023-08-11T01:46:52.549Z,15.65
2023-08-11T01:52:14.374Z,15.54
2023-08-11T01:57:41.830Z,15.50
2023-08-11T02:03:07.109Z,15.21
2023-08-11T02:08:28.877Z,15.35
2023-08-11T02:13:50.575Z,15.29
2023-08-11T02:19:12.377Z,15.27
2023-08-11T02:24:34.088Z,15.17
2023-08-11T02:29:55.788Z,15.30
2023-08-11T02:35:17.523Z,15.24
2023-08-11T02:40:39.248Z,15.24
2023-08-11T02:46:01.132Z,15.20
2023-08-11T02:51:22.914Z,15.05
2023-08-11T02:56:48.920Z,14.96
2023-08-11T03:02:10.964Z,14.85
2023-08-11T03:07:32.930Z,14.93
2023-08-11T03:12:54.618Z,14.86
2023-08-11T03:18:16.398Z,14.88
2023-08-11T03:23:38.152Z,14.63
2023-08-11T03:28:59.889Z,14.81
2023-08-11T03:34:21.641Z,14.77
2023-08-11T03:39:43.419Z,14.67
2023-08-11T03:45:05.535Z,14.83
2023-08-11T03:50:27.344Z,14.93
2023-08-11T03:55:50.100Z,14.93
2023-08-11T04:01:11.893Z,14.85
2023-08-11T04:06:33.656Z,14.69
2023-08-11T04:11:55.387Z,14.62
2023-08-11T04:17:17.196Z,14.81
2023-08-11T04:22:39.630Z,15.01
2023-08-11T04:28:01.437Z,15.16
2023-08-11T04:33:23.136Z,15.47
2023-08-11T04:38:44.838Z,15.81
2023-08-11T04:44:06.633Z,16.04
2023-08-11T04:49:28.349Z,16.21
2023-08-11T04:54:50.074Z,16.40
2023-08-11T05:00:12.183Z,16.71
2023-08-11T05:05:33.926Z,16.97
2023-08-11T05:10:55.668Z,17.27
2023-08-11T05:16:17.390Z,17.60
2023-08-11T05:21:39.209Z,17.97
2023-08-11T05:27:00.925Z,18.25
2023-08-11T05:32:23.292Z,18.36
2023-08-11T05:37:45.054Z,18.57
2023-08-11T05:43:07.057Z,18.77
2023-08-11T05:48:28.808Z,19.00
2023-08-11T05:53:53.128Z,19.27
2023-08-11T05:59:16.016Z,19.49
2023-08-11T06:04:37.815Z,19.81
2023-08-11T06:10:02.255Z,20.07
2023-08-11T06:15:24.546Z,20.40
2023-08-11T06:20:46.433Z,20.60
2023-08-11T06:26:08.242Z,20.77
2023-08-11T06:31:29.965Z,29.56
2023-08-11T06:36:51.695Z,36.73
2023-08-11T06:42:13.416Z,38.82
2023-08-11T06:47:35.655Z,39.76
2023-08-11T06:53:00.117Z,38.48
2023-08-11T06:58:24.789Z,38.68
2023-08-11T07:03:48.177Z,40.78
2023-08-11T07:09:09.875Z,41.21
2023-08-11T07:14:31.592Z,42.58
2023-08-11T07:19:53.315Z,45.25
2023-08-11T07:25:15.060Z,45.25
2023-08-11T07:30:36.848Z,47.85
2023-08-11T07:35:58.754Z,44.38
2023-08-11T07:41:20.453Z,41.52
2023-08-11T07:46:42.470Z,41.56
2023-08-11T07:52:04.360Z,41.01
2023-08-11T07:57:26.132Z,37.70
2023-08-11T08:02:48.523Z,35.91
2023-08-11T08:08:11.237Z,34.16
2023-08-11T08:13:33.344Z,33.43
2023-08-11T08:18:55.133Z,33.55
2023-08-11T08:24:16.844Z,32.61
2023-08-11T08:29:38.595Z,33.15
2023-08-11T08:35:00.416Z,33.13
2023-08-11T08:40:22.209Z,32.85
2023-08-11T08:45:44.934Z,33.53
2023-08-11T08:51:07.367Z,33.22
2023-08-11T08:56:29.759Z,33.49
2023-08-11T09:01:51.927Z,32.44
2023-08-11T09:07:13.831Z,31.75
2023-08-11T09:12:35.673Z,32.05
2023-08-11T09:17:59.794Z,32.45
2023-08-11T09:23:23.443Z,32.32
2023-08-11T09:28:47.036Z,31.65
2023-08-11T09:34:14.068Z,31.39
2023-08-11T09:39:37.145Z,30.29
2023-08-11T09:44:58.871Z,31.06
2023-08-11T09:50:22.507Z,31.33
2023-08-11T09:55:44.952Z,31.95
2023-08-11T10:01:20.652Z,31.69
2023-08-11T10:06:49.847Z,31.60
2023-08-11T10:12:12.820Z,32.39
2023-08-11T10:17:35.327Z,31.79
2023-08-11T10:22:58.217Z,32.10
2023-08-11T10:28:20.737Z,35.49
2023-08-11T10:33:49.248Z,42.67
2023-08-11T10:39:11.026Z,43.03
2023-08-11T10:44:34.161Z,44.33
2023-08-11T10:49:57.294Z,46.27
2023-08-11T10:55:19.116Z,44.61
2023-08-11T11:00:41.598Z,44.63
2023-08-11T11:06:07.473Z,42.35
2023-08-11T11:11:29.205Z,40.57
2023-08-11T11:16:51.147Z,40.99
2023-08-11T11:22:14.173Z,39.13
2023-08-11T11:27:41.956Z,39.46
2023-08-11T11:33:04.937Z,40.51
2023-08-11T11:38:26.942Z,39.90
2023-08-11T11:43:50.797Z,39.27
2023-08-11T11:49:28.045Z,40.10
2023-08-11T11:54:56.021Z,39.14
2023-08-11T12:00:17.809Z,40.33
2023-08-11T12:05:40.373Z,38.34
2023-08-11T12:11:05.013Z,36.63
2023-08-11T12:16:27.586Z,37.44
2023-08-11T12:21:50.995Z,37.01
2023-08-11T12:27:12.695Z,35.65
2023-08-11T12:32:34.422Z,35.16
2023-08-11T12:37:56.165Z,36.30
2023-08-11T12:43:17.999Z,36.14
2023-08-11T12:48:39.721Z,34.93
2023-08-11T12:54:01.438Z,35.66
2023-08-11T12:59:23.159Z,35.35
2023-08-11T13:04:45.075Z,34.22
2023-08-11T13:10:07.584Z,32.72
2023-08-11T13:15:29.376Z,33.10
2023-08-11T13:20:51.086Z,32.27
2023-08-11T13:26:12.806Z,32.45
2023-08-11T13:31:34.554Z,31.60
2023-08-11T13:36:56.302Z,30.18
2023-08-11T13:42:18.034Z,30.09
2023-08-11T13:47:39.787Z,30.06
2023-08-11T13:53:01.528Z,29.56
2023-08-11T13:58:23.312Z,29.54
2023-08-11T14:03:45.067Z,29.25
2023-08-11T14:09:06.851Z,28.55
2023-08-11T14:14:28.589Z,28.50
2023-08-11T14:19:50.324Z,29.31
2023-08-11T14:25:12.069Z,29.51
2023-08-11T14:30:34.055Z,29.70
2023-08-11T14:41:24.733Z,28.79
2023-08-11T14:46:46.450Z,28.87
2023-08-11T14:52:08.607Z,28.77
2023-08-11T14:57:30.488Z,28.99
2023-08-11T15:02:52.249Z,28.70
2023-08-11T15:08:14.071Z,28.18
2023-08-11T15:13:35.783Z,27.90
2023-08-11T15:18:57.511Z,27.57
2023-08-11T15:24:19.227Z,27.12
2023-08-11T15:29:40.933Z,27.53
2023-08-11T15:35:02.916Z,27.83
2023-08-11T15:40:24.642Z,27.67
2023-08-11T15:45:46.394Z,27.42
2023-08-11T15:51:08.135Z,26.76
2023-08-11T15:56:29.875Z,26.55
2023-08-11T16:02:07.417Z,26.73
2023-08-11T16:07:30.942Z,26.78
2023-08-11T16:12:52.735Z,26.98
2023-08-11T16:18:14.576Z,27.00
2023-08-11T16:23:36.571Z,26.88
2023-08-11T16:28:58.338Z,26.65
2023-08-11T16:34:23.558Z,26.53
2023-08-11T16:39:45.266Z,26.31
2023-08-11T16:45:07.292Z,26.14
2023-08-11T16:50:29.016Z,25.83
2023-08-11T16:55:50.771Z,25.74
2023-08-11T17:01:12.667Z,25.48
2023-08-11T17:06:34.421Z,25.25
2023-08-11T17:11:56.152Z,25.02
2023-08-11T17:17:17.930Z,24.82
2023-08-11T17:22:39.717Z,24.62
2023-08-11T17:28:01.444Z,24.42
2023-08-11T17:33:23.229Z,24.18
2023-08-11T17:38:44.960Z,24.00
2023-08-11T17:44:06.928Z,23.87
2023-08-11T17:49:28.659Z,23.63
2023-08-11T17:54:50.504Z,23.42
2023-08-11T18:00:12.593Z,23.22
2023-08-11T18:05:40.842Z,23.03
2023-08-11T18:11:02.559Z,22.84
2023-08-11T18:16:24.343Z,22.69
2023-08-11T18:21:46.125Z,22.47
2023-08-11T18:27:07.868Z,22.18
2023-08-11T18:32:29.625Z,22.10
2023-08-11T18:37:51.336Z,21.89
2023-08-11T18:43:13.047Z,21.75
2023-08-11T18:48:34.814Z,21.57
2023-08-11T18:53:56.711Z,21.43
2023-08-11T18:59:18.491Z,21.27
2023-08-11T19:04:40.246Z,21.14
2023-08-11T19:10:02.007Z,21.01
2023-08-11T19:15:23.801Z,20.85
2023-08-11T19:20:47.410Z,20.72
2023-08-11T19:26:09.131Z,20.58
2023-08-11T19:31:30.895Z,20.45
2023-08-11T19:36:52.640Z,20.37
2023-08-11T19:42:14.345Z,20.24
2023-08-11T19:47:36.107Z,20.04
2023-08-11T19:52:57.896Z,20.10
2023-08-11T19:58:19.647Z,19.93
2023-08-11T20:03:41.336Z,19.82
2023-08-11T20:09:03.229Z,19.86
2023-08-11T20:14:25.021Z,19.60
2023-08-11T20:19:46.763Z,19.45
2023-08-11T20:25:08.939Z,19.26
2023-08-11T20:30:30.676Z,19.05
2023-08-11T20:35:52.372Z,18.96
2023-08-11T20:41:14.097Z,18.76
2023-08-11T20:46:35.829Z,18.83
2023-08-11T20:51:57.527Z,18.70
2023-08-11T20:57:19.278Z,18.55
2023-08-11T21:02:40.970Z,18.42
2023-08-11T21:08:02.860Z,18.33
2023-08-11T21:13:24.592Z,18.23
2023-08-11T21:18:46.319Z,18.12
2023-08-11T21:24:08.211Z,18.02
2023-08-11T21:29:31.163Z,17.94
2023-08-11T21:34:52.889Z,17.82
2023-08-11T21:40:14.602Z,17.81
2023-08-11T21:45:36.301Z,17.83
2023-08-11T21:50:58.008Z,17.72
2023-08-11T21:56:19.812Z,17.54
2023-08-11T22:01:41.567Z,17.47
2023-08-11T22:07:05.452Z,17.37
2023-08-11T22:12:27.407Z,17.36
2023-08-11T22:17:49.211Z,17.38
2023-08-11T22:23:11.009Z,17.27
2023-08-11T22:28:32.793Z,17.13
2023-08-11T22:33:54.537Z,17.13
2023-08-11T22:39:16.264Z,17.04
2023-08-11T22:44:38.019Z,16.96
2023-08-11T22:49:59.741Z,16.84
2023-08-11T22:55:21.455Z,16.83
2023-08-11T23:00:43.213Z,16.75
2023-08-11T23:06:04.900Z,16.67
2023-08-11T23:11:26.664Z,16.57
2023-08-11T23:16:48.397Z,16.52
2023-08-11T23:22:10.115Z,16.45
2023-08-11T23:27:31.986Z,16.34
2023-08-11T23:32:53.798Z,16.25
2023-08-11T23:38:16.387Z,16.16
2023-08-11T23:43:38.205Z,16.14
2023-08-11T23:48:59.948Z,16.09
2023-08-11T23:54:21.670Z,16.01
2023-08-11T23:59:43.387Z,15.93
